Time;durP1;ratioP1;P1;durP2;ratioP2;P2;SDS_P1;SDS_P2;PMS_P1;PMS_P2;Temp;Humidity;BMP_temperature;BMP_pressure;BME280_temperature;BME280_humidity;BME280_pressure;Samples;Min_cycle;Max_cycle;Signal;HPM_P1;HPM_P2
2024/03/05 00:01:36;;;;;;;4.32;3.15;;;22.70;99.90;;;;;;4954978;28;20408;-48
2024/03/05 00:04:03;;;;;;;4.97;2.63;;;22.70;99.90;;;;;;4955150;28;20365;-48
2024/03/05 00:06:29;;;;;;;5.00;2.77;;;22.70;99.90;;;;;;4955313;28;20040;-48
2024/03/05 00:08:55;;;;;;;5.65;3.05;;;22.70;99.90;;;;;;4955399;29;20087;-48
2024/03/05 00:11:21;;;;;;;5.47;3.05;;;22.60;99.90;;;;;;4955517;29;20023;-47
2024/03/05 00:13:47;;;;;;;4.55;2.65;;;22.60;99.90;;;;;;4955352;29;20174;-48
2024/03/05 00:16:13;;;;;;;4.60;2.63;;;22.60;99.90;;;;;;4955590;29;20551;-47
2024/03/05 00:18:39;;;;;;;5.07;2.78;;;22.60;99.90;;;;;;4955101;29;20487;-47
2024/03/05 00:21:06;;;;;;;6.75;2.72;;;22.60;99.90;;;;;;4937848;29;20030;-48
2024/03/05 00:23:32;;;;;;;4.00;2.58;;;22.60;99.90;;;;;;4937592;29;20027;-48
2024/03/05 00:25:58;;;;;;;4.45;2.88;;;22.60;99.90;;;;;;4954962;28;20043;-48
2024/03/05 00:28:24;;;;;;;5.30;3.05;;;22.60;99.90;;;;;;4954799;28;20027;-48
2024/03/05 00:30:50;;;;;;;4.55;2.58;;;22.60;99.90;;;;;;4955150;29;20035;-48
2024/03/05 00:33:16;;;;;;;3.67;2.22;;;22.60;99.90;;;;;;4937648;29;20051;-48
2024/03/05 00:35:42;;;;;;;4.13;2.58;;;22.60;99.90;;;;;;4954786;28;20062;-48
2024/03/05 00:38:08;;;;;;;3.65;2.60;;;22.50;99.90;;;;;;4954776;28;20035;-48
2024/03/05 00:40:34;;;;;;;3.83;2.67;;;22.60;99.90;;;;;;4954816;29;20025;-47
2024/03/05 00:43:00;;;;;;;4.90;2.50;;;22.60;99.90;;;;;;4954647;29;20019;-47
2024/03/05 00:45:26;;;;;;;3.25;2.22;;;22.50;99.90;;;;;;4954591;28;20043;-47
2024/03/05 00:47:52;;;;;;;5.53;3.17;;;22.50;99.90;;;;;;4954845;29;20071;-47
2024/03/05 00:50:18;;;;;;;5.70;2.92;;;22.50;99.90;;;;;;4954610;29;20257;-48
2024/03/05 00:52:44;;;;;;;3.78;2.40;;;22.50;99.90;;;;;;4954507;28;20023;-48
2024/03/05 00:55:10;;;;;;;3.97;2.35;;;22.50;99.90;;;;;;4954379;28;20030;-48
2024/03/05 00:57:37;;;;;;;4.25;2.72;;;22.50;99.90;;;;;;4937285;29;20123;-47
2024/03/05 01:00:05;;;;;;;3.85;2.88;;;22.50;99.90;;;;;;4954471;28;20468;-47
2024/03/05 01:02:31;;;;;;;3.50;2.38;;;22.50;99.90;;;;;;4954864;29;20050;-48
2024/03/05 01:04:57;;;;;;;3.92;2.35;;;22.40;99.90;;;;;;4954356;29;20035;-48
2024/03/05 01:07:23;;;;;;;3.50;2.70;;;22.40;99.90;;;;;;4954617;29;20119;-47
2024/03/05 01:09:49;;;;;;;4.75;2.63;;;22.40;99.90;;;;;;4937059;28;20031;-47
2024/03/05 01:12:15;;;;;;;5.78;2.53;;;22.40;99.90;;;;;;4953496;28;20496;-48
2024/03/05 01:14:41;;;;;;;4.22;2.45;;;22.40;99.90;;;;;;4954281;29;20035;-48
2024/03/05 01:17:08;;;;;;;4.95;2.78;;;22.40;99.90;;;;;;4954230;29;20027;-48
2024/03/05 01:19:34;;;;;;;4.72;2.45;;;22.40;99.90;;;;;;4954245;29;20038;-48
2024/03/05 01:22:01;;;;;;;2.50;2.13;;;22.40;99.90;;;;;;4937018;29;20030;-48
2024/03/05 01:24:27;;;;;;;3.58;2.28;;;22.30;99.90;;;;;;4954237;28;20035;-48
2024/03/05 01:26:56;;;;;;;4.25;2.67;;;22.30;99.90;;;;;;4954232;29;20027;-48
2024/03/05 01:29:22;;;;;;;4.68;2.17;;;22.30;99.90;;;;;;4954250;28;20035;-48
2024/03/05 01:31:56;;;;;;;2.95;2.10;;;22.30;99.90;;;;;;4952693;29;20083;-49
2024/03/05 01:34:22;;;;;;;4.03;2.50;;;22.30;99.90;;;;;;4930858;29;20038;-48
2024/03/05 01:36:48;;;;;;;5.32;2.30;;;22.30;99.90;;;;;;4928355;29;20082;-48
2024/03/05 01:39:15;;;;;;;3.63;2.10;;;22.30;99.90;;;;;;4953371;29;20023;-48
2024/03/05 01:41:41;;;;;;;3.87;2.53;;;22.30;99.90;;;;;;4953890;29;20023;-48
2024/03/05 01:44:07;;;;;;;3.63;2.05;;;22.30;99.90;;;;;;4953238;29;20038;-48
2024/03/05 01:46:33;;;;;;;4.03;2.47;;;22.20;99.90;;;;;;4953147;29;20035;-48
2024/03/05 01:48:58;;;;;;;5.18;2.47;;;22.20;99.90;;;;;;4935938;29;20027;-48
2024/03/05 01:51:24;;;;;;;4.85;2.35;;;22.20;99.90;;;;;;4953405;29;20023;-48
2024/03/05 01:53:51;;;;;;;6.93;2.75;;;22.20;99.90;;;;;;4952975;29;20024;-48
2024/03/05 01:56:17;;;;;;;2.95;2.00;;;22.20;99.90;;;;;;4953826;29;20098;-47
2024/03/05 01:58:45;;;;;;;3.70;2.10;;;22.20;99.90;;;;;;4953837;29;20023;-48
2024/03/05 02:01:13;;;;;;;3.30;2.22;;;22.20;99.90;;;;;;4960481;23;20063;-62
2024/03/05 02:03:40;;;;;;;2.85;2.05;;;22.20;99.90;;;;;;4934458;29;20167;-61
2024/03/05 02:06:08;;;;;;;4.20;2.00;;;22.20;99.90;;;;;;4934515;29;20027;-61
2024/03/05 02:08:37;;;;;;;;;;;22.20;99.90;;;;;;4934855;29;20440;-63
2024/03/05 02:11:02;;;;;;;3.50;2.13;;;22.20;99.90;;;;;;4934395;29;19907;-63
2024/03/05 02:13:29;;;;;;;3.95;1.90;;;22.10;99.90;;;;;;4934684;29;20042;-62
2024/03/05 02:15:54;;;;;;;2.90;1.90;;;22.10;99.90;;;;;;4934556;29;20082;-63
2024/03/05 02:18:21;;;;;;;2.40;1.60;;;22.10;99.90;;;;;;4934376;29;20035;-64
2024/03/05 02:20:47;;;;;;;6.15;1.90;;;22.10;99.90;;;;;;4934402;29;20038;-64
2024/03/05 02:23:13;;;;;;;2.85;1.60;;;22.10;99.90;;;;;;4934672;29;20024;-63
2024/03/05 02:25:39;;;;;;;3.75;1.80;;;22.10;99.90;;;;;;4937922;29;20063;-62
2024/03/05 02:28:08;;;;;;;2.30;1.65;;;22.10;99.90;;;;;;4937895;29;20536;-63
2024/03/05 02:30:35;;;;;;;3.35;2.15;;;22.10;99.90;;;;;;4937986;29;20040;-63
2024/03/05 02:33:01;;;;;;;3.20;2.10;;;22.10;99.90;;;;;;4938085;29;20388;-62
2024/03/05 02:35:27;;;;;;;6.68;2.30;;;22.10;99.90;;;;;;4937756;29;20439;-62
2024/03/05 02:37:53;;;;;;;2.72;1.83;;;22.00;99.90;;;;;;4937769;29;20020;-62
2024/03/05 02:40:19;;;;;;;2.38;1.73;;;22.00;99.90;;;;;;4937697;29;20444;-62
2024/03/05 02:42:45;;;;;;;4.10;1.83;;;22.00;99.90;;;;;;4904960;29;20024;-62
2024/03/05 02:45:11;;;;;;;2.88;1.75;;;22.00;99.90;;;;;;4937596;29;20036;-62
2024/03/05 02:47:40;;;;;;;3.17;2.15;;;22.00;99.90;;;;;;4937401;29;20023;-62
2024/03/05 02:50:09;;;;;;;2.78;1.85;;;22.00;99.90;;;;;;4937417;29;20544;-62
2024/03/05 02:52:35;;;;;;;2.58;1.50;;;22.00;99.90;;;;;;4937667;29;20035;-62
2024/03/05 02:55:01;;;;;;;3.40;1.65;;;22.00;99.90;;;;;;4937690;29;20417;-63
2024/03/05 02:57:28;;;;;;;3.75;1.77;;;22.00;99.90;;;;;;4937565;29;20043;-62
2024/03/05 02:59:54;;;;;;;2.70;1.55;;;21.90;99.90;;;;;;4937244;29;20023;-61
2024/03/05 03:02:21;;;;;;;2.72;1.52;;;22.00;99.90;;;;;;4937721;29;20048;-62
2024/03/05 03:04:47;;;;;;;2.97;1.70;;;22.00;99.90;;;;;;4937255;29;20035;-63
2024/03/05 03:07:13;;;;;;;3.47;2.00;;;21.90;99.90;;;;;;4937307;29;20031;-62
2024/03/05 03:09:39;;;;;;;2.60;1.75;;;21.90;99.90;;;;;;4937120;29;20054;-62
2024/03/05 03:12:05;;;;;;;3.45;1.58;;;21.90;99.90;;;;;;4920040;29;20034;-63
2024/03/05 03:14:31;;;;;;;2.40;1.30;;;21.90;99.90;;;;;;4937264;29;20043;-62
2024/03/05 03:16:57;;;;;;;2.53;1.27;;;21.90;99.90;;;;;;4937007;29;20030;-63
2024/03/05 03:19:23;;;;;;;2.45;1.50;;;21.90;99.90;;;;;;4937057;29;20451;-63
2024/03/05 03:21:49;;;;;;;2.72;1.73;;;21.90;99.90;;;;;;4919978;29;20035;-63
2024/03/05 03:24:17;;;;;;;4.55;1.92;;;21.90;99.90;;;;;;4936725;29;20024;-63
2024/03/05 03:26:44;;;;;;;4.72;1.58;;;21.80;99.90;;;;;;4936781;29;20508;-62
2024/03/05 03:29:13;;;;;;;2.65;1.63;;;21.90;99.90;;;;;;4936878;29;20145;-63
2024/03/05 03:31:45;;;;;;;3.65;1.60;;;21.90;99.90;;;;;;4936596;29;20385;-63
2024/03/05 03:34:12;;;;;;;3.00;1.50;;;21.80;99.90;;;;;;4936734;29;20504;-62
2024/03/05 03:36:38;;;;;;;2.97;1.65;;;21.80;99.90;;;;;;4919055;29;20028;-62
2024/03/05 03:39:10;;;;;;;2.05;1.20;;;21.80;99.90;;;;;;4936949;29;20028;-62
2024/03/05 03:41:39;;;;;;;3.80;1.60;;;21.80;99.90;;;;;;4936640;29;20067;-63
2024/03/05 03:44:08;;;;;;;2.05;1.45;;;21.80;99.90;;;;;;4936715;29;20479;-62
2024/03/05 03:46:36;;;;;;;2.53;1.55;;;21.80;99.90;;;;;;4919624;29;20106;-63
2024/03/05 03:49:05;;;;;;;2.50;1.50;;;21.80;99.90;;;;;;4936624;29;20078;-62
2024/03/05 03:51:32;;;;;;;2.38;1.70;;;21.80;99.90;;;;;;4903970;29;20404;-62
2024/03/05 03:53:58;;;;;;;3.15;1.77;;;21.80;99.90;;;;;;4919131;29;20038;-62
2024/03/05 03:56:24;;;;;;;2.33;1.75;;;21.80;99.90;;;;;;4936403;29;20106;-62
2024/03/05 03:58:50;;;;;;;1.90;1.27;;;21.80;99.90;;;;;;4936246;29;20028;-61
2024/03/05 04:01:18;;;;;;;2.20;1.27;;;21.70;99.90;;;;;;4954512;23;20059;-41
2024/03/05 04:03:45;;;;;;;2.15;1.35;;;21.70;99.90;;;;;;4955462;28;20039;-40
2024/03/05 04:06:11;;;;;;;1.63;1.10;;;21.70;99.90;;;;;;4938688;29;20070;-40
2024/03/05 04:08:37;;;;;;;2.20;1.45;;;21.70;99.90;;;;;;4955443;29;20047;-40
2024/03/05 04:11:03;;;;;;;3.78;1.55;;;21.70;99.90;;;;;;4955484;28;20058;-40
2024/03/05 04:13:29;;;;;;;4.78;1.50;;;21.70;99.90;;;;;;4955364;28;20447;-40
2024/03/05 04:15:55;;;;;;;3.08;1.40;;;21.70;99.90;;;;;;4937949;29;20027;-40
2024/03/05 04:18:21;;;;;;;2.22;1.50;;;21.70;99.90;;;;;;4937968;29;20439;-40
2024/03/05 04:20:47;;;;;;;2.10;1.05;;;21.70;99.90;;;;;;4922400;29;20457;-40
2024/03/05 04:23:13;;;;;;;2.72;1.70;;;21.70;99.90;;;;;;4937922;29;20110;-40
2024/03/05 04:25:41;;;;;;;5.13;1.52;;;21.70;99.90;;;;;;4954834;28;20046;-40
2024/03/05 04:28:12;;;;;;;1.52;1.10;;;21.70;99.90;;;;;;4955047;28;20069;-41
2024/03/05 04:30:41;;;;;;;2.42;1.10;;;21.70;99.90;;;;;;4955416;28;20031;-41
2024/03/05 04:33:09;;;;;;;3.05;1.50;;;21.70;99.90;;;;;;4955199;28;20023;-40
2024/03/05 04:35:36;;;;;;;2.03;1.10;;;21.70;99.90;;;;;;4955182;28;20039;-40
2024/03/05 04:38:05;;;;;;;2.20;1.27;;;21.60;99.90;;;;;;4955042;28;20031;-41
2024/03/05 04:40:33;;;;;;;3.78;1.25;;;21.60;99.90;;;;;;4954702;29;20031;-40
2024/03/05 04:42:59;;;;;;;3.42;1.42;;;21.60;99.90;;;;;;4937838;28;20049;-41
2024/03/05 04:45:25;;;;;;;1.48;0.98;;;21.60;99.90;;;;;;4954741;28;20039;-40
2024/03/05 04:47:51;;;;;;;4.65;1.67;;;21.70;99.90;;;;;;4953939;28;20106;-41
2024/03/05 04:50:18;;;;;;;4.32;1.20;;;21.60;99.90;;;;;;4954599;28;20502;-41
2024/03/05 04:52:45;;;;;;;1.77;1.15;;;21.60;99.90;;;;;;4954620;28;20026;-41
2024/03/05 04:55:12;;;;;;;3.97;1.38;;;21.60;99.90;;;;;;4954622;29;20106;-41
2024/03/05 04:57:38;;;;;;;2.20;1.00;;;21.60;99.90;;;;;;4955123;28;20538;-41
2024/03/05 05:00:19;;;;;;;3.60;1.27;;;21.60;99.90;;;;;;4954485;29;20483;-42
2024/03/05 05:02:51;;;;;;;2.22;1.15;;;21.60;99.90;;;;;;4954821;28;20407;-42
2024/03/05 05:05:18;;;;;;;3.45;1.13;;;21.60;99.90;;;;;;4937179;29;20488;-41
2024/03/05 05:07:44;;;;;;;3.33;1.40;;;21.60;99.90;;;;;;4946669;28;20038;-41
2024/03/05 05:10:11;;;;;;;3.00;1.42;;;21.60;99.90;;;;;;4955804;28;20031;-40
2024/03/05 05:12:40;;;;;;;1.90;1.27;;;21.60;99.90;;;;;;4955307;28;20027;-41
2024/03/05 05:15:09;;;;;;;3.63;0.90;;;21.60;99.90;;;;;;4962066;28;20038;-41
2024/03/05 05:17:35;;;;;;;3.03;1.10;;;21.60;99.90;;;;;;4971663;28;20070;-40
2024/03/05 05:20:07;;;;;;;2.88;1.10;;;21.50;99.90;;;;;;4954897;28;20117;-40
2024/03/05 05:22:33;;;;;;;3.70;1.00;;;21.50;99.90;;;;;;4973520;28;20027;-40
2024/03/05 05:24:59;;;;;;;1.65;0.90;;;21.50;99.90;;;;;;4973410;28;20041;-41
2024/03/05 05:27:24;;;;;;;1.63;1.10;;;21.50;99.90;;;;;;4973642;28;20027;-40
2024/03/05 05:29:50;;;;;;;1.77;0.98;;;21.50;99.90;;;;;;4972617;28;20110;-41
2024/03/05 05:32:16;;;;;;;1.13;0.82;;;21.50;99.90;;;;;;4956251;28;20035;-41
2024/03/05 05:34:42;;;;;;;1.27;0.85;;;21.50;99.90;;;;;;4973499;28;20023;-40
2024/03/05 05:37:08;;;;;;;4.07;1.27;;;21.50;99.90;;;;;;4973632;28;20379;-40
2024/03/05 05:39:34;;;;;;;2.67;0.98;;;21.50;99.90;;;;;;4973414;28;20459;-41
2024/03/05 05:42:00;;;;;;;2.95;1.10;;;21.50;99.90;;;;;;4973189;28;20027;-42
2024/03/05 05:44:25;;;;;;;3.17;1.30;;;21.50;99.90;;;;;;4973153;28;20042;-41
2024/03/05 05:46:51;;;;;;;3.85;1.08;;;21.40;99.90;;;;;;4973112;28;20030;-40
2024/03/05 05:49:20;;;;;;;3.53;1.25;;;21.50;99.90;;;;;;4973058;28;20038;-40
2024/03/05 05:51:49;;;;;;;4.40;1.10;;;21.40;99.90;;;;;;4973161;28;20061;-41
2024/03/05 05:54:16;;;;;;;6.95;1.67;;;21.40;99.90;;;;;;4973270;28;20027;-40
2024/03/05 05:56:41;;;;;;;4.00;1.40;;;21.40;99.90;;;;;;4955924;28;20026;-40
2024/03/05 05:59:11;;;;;;;2.47;1.27;;;21.40;99.90;;;;;;4957715;28;20537;-41
2024/03/05 06:01:40;;;;;;;4.43;1.02;;;21.40;99.90;;;;;;4964483;28;20499;-40
2024/03/05 06:04:06;;;;;;;2.13;1.20;;;21.40;99.90;;;;;;4956514;28;20035;-40
2024/03/05 06:06:38;;;;;;;6.93;1.10;;;21.40;99.90;;;;;;4957562;28;20448;-40
2024/03/05 06:09:08;;;;;;;3.65;1.42;;;21.40;99.90;;;;;;4957488;28;20102;-40
2024/03/05 06:11:37;;;;;;;3.00;1.10;;;21.40;99.90;;;;;;4957531;28;20151;-40
2024/03/05 06:14:04;;;;;;;7.40;1.80;;;21.40;99.90;;;;;;4956920;28;20035;-40
2024/03/05 06:16:31;;;;;;;7.18;2.17;;;21.40;99.90;;;;;;4956933;28;20054;-40
2024/03/05 06:18:57;;;;;;;6.43;1.70;;;21.40;99.90;;;;;;4940101;29;20447;-40
2024/03/05 06:21:23;;;;;;;5.97;1.65;;;21.40;99.90;;;;;;4957418;29;20154;-41
2024/03/05 06:23:52;;;;;;;5.35;1.73;;;21.30;99.90;;;;;;4957121;29;20391;-41
2024/03/05 06:26:18;;;;;;;4.45;1.88;;;21.30;99.90;;;;;;4940693;29;20034;-41
2024/03/05 06:28:44;;;;;;;3.67;1.58;;;21.30;99.90;;;;;;4957439;29;20023;-40
2024/03/05 06:31:10;;;;;;;4.43;1.65;;;21.30;99.90;;;;;;4939939;29;20041;-40
2024/03/05 06:33:37;;;;;;;4.07;1.40;;;21.30;99.90;;;;;;4957228;28;20034;-40
2024/03/05 06:36:06;;;;;;;6.55;1.85;;;21.30;99.90;;;;;;4957143;29;20038;-40
2024/03/05 06:38:35;;;;;;;4.88;1.70;;;21.30;99.90;;;;;;4957068;29;20107;-41
2024/03/05 06:41:03;;;;;;;7.05;1.75;;;21.30;99.90;;;;;;4939929;29;20026;-41
2024/03/05 06:43:37;;;;;;;5.43;1.83;;;21.30;99.90;;;;;;4957056;28;20034;-41
2024/03/05 06:46:03;;;;;;;6.18;1.73;;;21.30;99.90;;;;;;4956821;29;20039;-41
2024/03/05 06:48:32;;;;;;;7.38;1.95;;;21.30;99.90;;;;;;4956932;28;20054;-42
2024/03/05 06:51:01;;;;;;;6.75;1.95;;;21.20;99.90;;;;;;4956909;29;20387;-42
2024/03/05 06:58:57;;;;;;;8.05;2.08;;;21.20;99.90;;;;;;4957063;29;20122;-42
2024/03/05 07:01:27;;;;;;;5.88;1.67;;;21.20;99.90;;;;;;4956354;28;20050;-42
2024/03/05 07:03:53;;;;;;;5.07;1.60;;;21.20;99.90;;;;;;4956416;28;20027;-40
2024/03/05 07:06:20;;;;;;;7.00;2.30;;;21.20;99.90;;;;;;4956342;28;20110;-42
2024/03/05 07:08:51;;;;;;;5.07;1.60;;;21.20;99.90;;;;;;4956685;28;20023;-41
2024/03/05 07:11:18;;;;;;;5.72;1.70;;;21.20;99.90;;;;;;4955573;28;20063;-42
2024/03/05 07:13:49;;;;;;;8.52;2.58;;;21.20;99.90;;;;;;4956562;29;20023;-41
2024/03/05 07:16:16;;;;;;;7.78;2.15;;;21.20;99.90;;;;;;4956559;28;20025;-41
2024/03/05 07:18:49;;;;;;;6.35;2.28;;;21.20;99.90;;;;;;4956248;29;20031;-42
2024/03/05 07:21:19;;;;;;;8.20;2.85;;;21.20;99.90;;;;;;4956446;28;20110;-41
2024/03/05 07:23:46;;;;;;;6.47;2.35;;;21.20;99.90;;;;;;4956092;29;20476;-40
2024/03/05 07:26:15;;;;;;;9.70;2.75;;;21.10;99.90;;;;;;4955945;28;20046;-40
2024/03/05 07:28:41;;;;;;;5.65;2.35;;;21.10;99.90;;;;;;4939255;29;20041;-41
2024/03/05 07:31:07;;;;;;;7.22;3.05;;;21.20;99.90;;;;;;4955799;28;20031;-41
2024/03/05 07:33:33;;;;;;;5.93;2.63;;;21.10;99.90;;;;;;4955925;29;20066;-41
2024/03/05 07:35:59;;;;;;;5.82;2.63;;;21.10;99.90;;;;;;4955781;28;20023;-41
2024/03/05 07:38:25;;;;;;;4.55;2.95;;;21.10;99.90;;;;;;4938351;28;20023;-41
2024/03/05 07:40:51;;;;;;;6.80;2.70;;;21.10;99.90;;;;;;4955885;28;20027;-41
2024/03/05 07:43:17;;;;;;;6.97;3.00;;;21.10;99.90;;;;;;4955924;29;20480;-41
2024/03/05 07:45:43;;;;;;;6.18;3.10;;;21.20;99.90;;;;;;4955531;28;20075;-41
2024/03/05 07:48:11;;;;;;;10.77;3.25;;;21.10;99.90;;;;;;4955673;28;20019;-42
2024/03/05 07:50:37;;;;;;;6.57;3.33;;;21.10;99.90;;;;;;4955719;28;20399;-42
2024/03/05 07:53:03;;;;;;;10.02;3.42;;;21.10;99.90;;;;;;4955822;28;20027;-42
2024/03/05 07:55:29;;;;;;;7.97;2.47;;;21.10;99.90;;;;;;4955539;28;20465;-41
2024/03/05 07:57:56;;;;;;;9.43;3.25;;;21.10;99.90;;;;;;4938294;29;20384;-41
2024/03/05 08:00:23;;;;;;;10.10;3.08;;;21.10;99.90;;;;;;4955553;28;20027;-41
2024/03/05 08:02:53;;;;;;;6.53;3.08;;;21.20;99.90;;;;;;4955517;29;20043;-41
2024/03/05 08:05:21;;;;;;;7.38;3.22;;;21.20;99.90;;;;;;4938799;29;20047;-43
2024/03/05 08:07:56;;;;;;;4.15;2.50;;;21.20;99.90;;;;;;4938451;29;20174;-41
2024/03/05 08:10:23;;;;;;;4.35;2.42;;;21.20;99.90;;;;;;4955684;28;20116;-42
2024/03/05 08:12:53;;;;;;;6.43;2.70;;;21.20;99.90;;;;;;4938477;29;20408;-41
2024/03/05 08:15:19;;;;;;;5.97;2.90;;;21.20;99.90;;;;;;4938975;29;20102;-41
2024/03/05 08:17:47;;;;;;;6.70;3.13;;;21.30;99.90;;;;;;4938206;29;20024;-42
2024/03/05 08:20:26;;;;;;;3.83;2.63;;;21.30;99.90;;;;;;4955080;29;20418;-42
2024/03/05 08:22:53;;;;;;;7.93;3.03;;;21.30;99.90;;;;;;4954960;28;20031;-41
2024/03/05 08:25:21;;;;;;;4.18;2.60;;;21.40;99.90;;;;;;4937932;28;20054;-42
2024/03/05 08:27:51;;;;;;;5.75;2.50;;;21.30;99.90;;;;;;4937543;29;20510;-41
2024/03/05 08:30:16;;;;;;;7.43;3.50;;;21.40;99.90;;;;;;4954914;28;20035;-41
2024/03/05 08:32:43;;;;;;;8.48;3.88;;;21.40;99.90;;;;;;4955061;28;20027;-41
2024/03/05 08:35:11;;;;;;;5.25;3.33;;;21.40;99.90;;;;;;4955154;28;20023;-42
2024/03/05 08:37:47;;;;;;;6.80;3.88;;;21.40;99.90;;;;;;4954970;29;20451;-42
2024/03/05 08:40:18;;;;;;;11.80;3.70;;;21.40;99.90;;;;;;4954758;28;20026;-41
2024/03/05 08:42:46;;;;;;;8.48;4.35;;;21.40;99.90;;;;;;4954894;28;20518;-42
2024/03/05 08:45:19;;;;;;;8.98;4.20;;;21.50;99.90;;;;;;4967642;28;20048;-41
2024/03/05 08:47:49;;;;;;;8.75;4.40;;;21.50;99.90;;;;;;4971926;28;20038;-41
2024/03/05 08:50:16;;;;;;;11.15;4.35;;;21.50;99.90;;;;;;4973085;28;20023;-42
2024/03/05 08:52:42;;;;;;;8.50;4.38;;;21.50;99.90;;;;;;4972948;28;20485;-41
2024/03/05 08:55:08;;;;;;;8.65;4.30;;;21.50;99.90;;;;;;4973867;28;20031;-41
2024/03/05 08:57:36;;;;;;;8.98;4.78;;;21.50;99.90;;;;;;4956498;28;20023;-41
2024/03/05 09:00:03;;;;;;;9.48;4.40;;;21.50;99.90;;;;;;4956286;28;20030;-41
2024/03/05 09:02:29;;;;;;;7.18;3.92;;;21.50;99.90;;;;;;4968468;28;20069;-41
2024/03/05 09:04:55;;;;;;;8.30;4.18;;;21.50;99.90;;;;;;4973665;28;20046;-41
2024/03/05 09:07:21;;;;;;;9.77;4.63;;;21.60;99.90;;;;;;4973871;28;20506;-41
2024/03/05 09:09:47;;;;;;;7.15;4.07;;;21.50;99.90;;;;;;4973436;28;20360;-41
2024/03/05 09:12:13;;;;;;;6.40;3.60;;;21.50;99.90;;;;;;4972244;28;20019;-41
2024/03/05 09:14:40;;;;;;;7.30;4.13;;;21.60;99.90;;;;;;4972303;28;20056;-41
2024/03/05 09:17:06;;;;;;;9.75;4.20;;;21.60;99.90;;;;;;4972244;28;20031;-42
2024/03/05 09:19:32;;;;;;;9.48;4.72;;;21.60;99.90;;;;;;4973375;28;20030;-41
2024/03/05 09:21:59;;;;;;;13.95;5.53;;;21.60;99.90;;;;;;4973371;28;20364;-41
2024/03/05 09:24:25;;;;;;;7.13;4.85;;;21.60;99.90;;;;;;4973452;28;20030;-42
2024/03/05 09:26:51;;;;;;;10.10;5.57;;;21.60;99.90;;;;;;4973319;28;20041;-41
2024/03/05 09:29:16;;;;;;;10.32;4.78;;;21.70;99.90;;;;;;4973277;28;20023;-41
2024/03/05 09:31:43;;;;;;;9.98;6.07;;;21.70;99.90;;;;;;4973316;28;20483;-41
2024/03/05 09:34:09;;;;;;;10.68;5.82;;;21.70;99.90;;;;;;4977435;28;20113;-41
2024/03/05 09:36:34;;;;;;;8.73;5.68;;;21.70;99.90;;;;;;4978273;28;20118;-41
2024/03/05 09:39:00;;;;;;;11.60;6.13;;;21.70;99.90;;;;;;4979773;28;20422;-41
2024/03/05 09:41:31;;;;;;;11.63;6.53;;;21.80;99.90;;;;;;4980075;28;20023;-41
2024/03/05 09:43:57;;;;;;;9.68;6.18;;;21.80;99.90;;;;;;4979772;28;20024;-41
2024/03/05 09:46:24;;;;;;;14.52;7.45;;;21.70;99.90;;;;;;4979926;28;20032;-41
2024/03/05 09:48:50;;;;;;;12.80;7.50;;;21.80;99.90;;;;;;4979660;28;20479;-41
2024/03/05 09:51:20;;;;;;;12.52;7.00;;;21.80;99.90;;;;;;4979735;28;20058;-41
2024/03/05 09:53:45;;;;;;;12.98;7.10;;;21.80;99.90;;;;;;4978515;28;20355;-41
2024/03/05 09:56:15;;;;;;;11.30;6.35;;;21.80;99.90;;;;;;4978433;28;20030;-42
2024/03/05 09:58:41;;;;;;;12.13;6.72;;;21.90;99.90;;;;;;4978375;28;20392;-42
2024/03/05 10:01:09;;;;;;;10.05;6.57;;;21.90;99.90;;;;;;4979469;28;20123;-42
2024/03/05 10:03:37;;;;;;;15.30;7.82;;;21.90;99.90;;;;;;4979529;28;20026;-42
2024/03/05 10:06:09;;;;;;;10.63;6.78;;;21.90;99.90;;;;;;4979545;28;20463;-41
2024/03/05 10:08:35;;;;;;;11.68;7.22;;;22.00;99.90;;;;;;4979728;28;20038;-42
2024/03/05 10:11:03;;;;;;;12.68;6.55;;;22.00;99.90;;;;;;4961575;28;20368;-42
2024/03/05 10:13:37;;;;;;;11.13;6.60;;;22.10;99.90;;;;;;4979765;28;20035;-42
2024/03/05 10:16:20;;;;;;;10.88;6.93;;;22.10;99.90;;;;;;4979284;28;20027;-41
2024/03/05 10:18:47;;;;;;;12.93;6.38;;;22.10;99.90;;;;;;4979443;28;20162;-41
2024/03/05 10:21:18;;;;;;;13.30;6.70;;;22.20;99.90;;;;;;4979433;28;20058;-42
2024/03/05 10:23:57;;;;;;;10.65;6.13;;;22.20;99.90;;;;;;4979127;28;20037;-42
2024/03/05 10:26:25;;;;;;;10.30;5.75;;;22.20;99.90;;;;;;4979149;28;20172;-41
2024/03/05 10:28:52;;;;;;;11.63;6.18;;;22.30;99.90;;;;;;4979284;28;20030;-41
2024/03/05 10:31:25;;;;;;;10.43;6.13;;;22.30;99.90;;;;;;4979393;28;20395;-41
2024/03/05 10:33:56;;;;;;;10.13;5.90;;;22.40;99.90;;;;;;4979223;28;20144;-41
2024/03/05 10:36:31;;;;;;;8.93;4.85;;;22.40;99.90;;;;;;4979283;28;20033;-41
2024/03/05 10:38:57;;;;;;;9.23;5.70;;;22.40;99.90;;;;;;4979574;28;20151;-42
2024/03/05 10:41:27;;;;;;;10.77;6.15;;;22.50;99.90;;;;;;4979234;28;20022;-42
2024/03/05 10:43:55;;;;;;;10.82;5.05;;;22.50;99.90;;;;;;4979184;28;20391;-40
2024/03/05 10:46:22;;;;;;;7.78;5.28;;;22.60;99.90;;;;;;4976180;28;20082;-41
2024/03/05 10:48:50;;;;;;;;;;;22.60;99.90;;;;;;4976183;28;20476;-43
2024/03/05 10:51:23;;;;;;;10.52;4.70;;;22.60;99.90;;;;;;4958630;28;19949;-41
2024/03/05 10:53:50;;;;;;;8.60;5.20;;;22.70;99.90;;;;;;4975839;28;20030;-42
2024/03/05 10:56:17;;;;;;;10.43;4.97;;;22.70;99.90;;;;;;4975806;28;20105;-41
2024/03/05 11:01:25;;;;;;;11.73;5.25;;;22.70;99.90;;;;;;4975538;28;20058;-41
2024/03/05 11:03:55;;;;;;;11.02;5.47;;;22.70;99.90;;;;;;4975867;28;20391;-45
2024/03/05 11:06:21;;;;;;;8.27;4.15;;;22.80;99.90;;;;;;4975837;28;20038;-42
2024/03/05 11:08:48;;;;;;;8.30;4.88;;;22.80;99.90;;;;;;4975903;28;20065;-42
2024/03/05 11:11:20;;;;;;;10.27;5.00;;;22.80;99.90;;;;;;4975757;28;20050;-42
2024/03/05 11:13:51;;;;;;;12.23;4.40;;;22.90;99.90;;;;;;4975762;28;20491;-43
2024/03/05 11:16:20;;;;;;;13.80;4.65;;;22.90;99.90;;;;;;4975665;28;20105;-41
2024/03/05 11:18:49;;;;;;;10.77;5.35;;;22.90;99.90;;;;;;4975528;28;20042;-42
2024/03/05 11:21:15;;;;;;;7.53;3.97;;;22.90;99.90;;;;;;4975577;28;20034;-42
2024/03/05 11:23:55;;;;;;;8.95;4.30;;;22.90;99.90;;;;;;4975281;28;20051;-42
2024/03/05 11:26:25;;;;;;;8.82;4.35;;;23.00;99.90;;;;;;4975263;28;20031;-44
2024/03/05 11:29:00;;;;;;;7.03;4.40;;;23.00;99.90;;;;;;4975315;28;20348;-42
2024/03/05 11:31:27;;;;;;;9.93;4.53;;;23.00;99.90;;;;;;4975255;28;20439;-42
2024/03/05 11:34:02;;;;;;;6.80;4.53;;;23.10;99.90;;;;;;4975388;28;20026;-42
2024/03/05 11:36:33;;;;;;;6.07;4.13;;;23.10;99.90;;;;;;4975204;28;20089;-42
2024/03/05 11:39:06;;;;;;;6.60;3.80;;;23.10;99.90;;;;;;4975277;28;20447;-42
2024/03/05 11:41:41;;;;;;;9.45;4.35;;;23.20;99.90;;;;;;4975222;28;20513;-42
2024/03/05 11:44:10;;;;;;;7.20;3.50;;;23.20;99.90;;;;;;4941593;28;20122;-42
2024/03/05 11:46:44;;;;;;;6.75;4.30;;;23.20;99.90;;;;;;4975281;28;20026;-41
2024/03/05 11:49:10;;;;;;;8.13;4.18;;;23.20;99.90;;;;;;4974956;28;20018;-42
2024/03/05 11:51:44;;;;;;;6.97;3.60;;;23.30;99.90;;;;;;4975176;28;20026;-42
2024/03/05 11:54:12;;;;;;;7.15;3.92;;;23.30;99.90;;;;;;4975332;28;20372;-43
2024/03/05 11:56:40;;;;;;;7.63;3.78;;;23.40;99.90;;;;;;4957033;28;20169;-42
2024/03/05 11:59:08;;;;;;;7.95;3.47;;;23.30;99.90;;;;;;4957697;28;20491;-42
2024/03/05 12:01:34;;;;;;;7.53;3.83;;;23.40;99.90;;;;;;4974659;28;20066;-41
2024/03/05 12:04:00;;;;;;;7.25;3.58;;;23.40;99.90;;;;;;4974603;28;20026;-42
2024/03/05 12:06:27;;;;;;;7.37;3.57;;;23.40;99.90;;;;;;4938352;29;20036;-42
2024/03/05 12:08:54;;;;;;;7.57;3.67;;;23.40;99.90;;;;;;4958727;28;20030;-42
2024/03/05 12:11:20;;;;;;;6.70;3.47;;;23.50;99.90;;;;;;4956778;28;20022;-42
2024/03/05 12:13:47;;;;;;;6.75;3.67;;;23.50;99.90;;;;;;4974227;28;20085;-42
2024/03/05 12:16:15;;;;;;;7.90;3.83;;;23.50;99.90;;;;;;4973402;28;20539;-41
2024/03/05 12:18:42;;;;;;;7.15;3.25;;;23.50;99.90;;;;;;4973648;28;20049;-42
2024/03/05 12:21:08;;;;;;;7.63;3.28;;;23.50;99.90;;;;;;4973907;28;20101;-42
2024/03/05 12:23:35;;;;;;;6.63;3.03;;;23.60;99.90;;;;;;4974874;28;20089;-42
2024/03/05 12:26:02;;;;;;;5.57;3.33;;;23.60;99.90;;;;;;4974274;28;20118;-42
2024/03/05 12:28:27;;;;;;;5.82;3.10;;;23.60;99.90;;;;;;4974542;28;20110;-42
2024/03/05 12:30:55;;;;;;;5.18;3.00;;;23.60;99.90;;;;;;4957019;28;20109;-42
2024/03/05 12:33:26;;;;;;;8.68;2.95;;;23.60;99.90;;;;;;4974341;28;20027;-42
2024/03/05 12:35:52;;;;;;;7.20;2.95;;;23.70;99.90;;;;;;4974062;28;20046;-41
2024/03/05 12:38:18;;;;;;;5.40;2.72;;;23.70;99.90;;;;;;4974259;28;20551;-42
2024/03/05 12:40:44;;;;;;;8.95;2.78;;;23.70;99.90;;;;;;4956807;28;20117;-42
2024/03/05 12:43:10;;;;;;;7.30;3.50;;;23.70;99.90;;;;;;4974174;28;20110;-41
2024/03/05 12:45:37;;;;;;;5.85;2.67;;;23.70;99.90;;;;;;4974200;28;20034;-43
2024/03/05 12:48:08;;;;;;;4.85;3.10;;;23.80;99.90;;;;;;4973926;28;20106;-43
2024/03/05 12:50:35;;;;;;;5.97;2.65;;;23.80;99.90;;;;;;4973986;28;20031;-42
2024/03/05 12:53:03;;;;;;;4.38;2.75;;;23.80;99.90;;;;;;4956472;28;20034;-41
2024/03/05 12:55:29;;;;;;;;;;;23.80;99.90;;;;;;4956929;28;20031;-41